Nearby METAR Reports

 

KMMK - Meriden, Connecticut, USA
Distance from station: SSE 6mi, 10km
Updated: Wed, 02-24-2021 10:53pm EST
Overcast
Overcast
 Wind from calm
Wind: Calm
Temperature: 45°F , 7°C
Dew Point: 36°F , 2°C
Humidity: 71%
Barometer: 29.74 inHg , 1007.1 hPa
Clouds: Overcast
Visibility: 10 miles , 16 km
Cloud details: Overcast 10000 ft
2021/02/25 03:53 KMMK 250353Z AUTO 00000KT 10SM OVC100 07/02 A2974 RMK AO2 SLP073 T00670022
KHFD - Hartford/Brainar, Connecticut, USA
Distance from station: NE 15mi, 25km
Updated: Wed, 02-24-2021 10:53pm EST
Overcast
Overcast
 Wind from SSW
Wind: SSW 6 mph , 9 km/h
Temperature: 45°F , 7°C
Wind Chill: 42°F , 6°C
Dew Point: 36°F , 2°C
Humidity: 71%
Barometer: 29.73 inHg , 1006.8 hPa
Clouds: Overcast
Visibility: 10 miles , 16 km
Cloud details: Overcast 10000 ft
2021/02/25 03:53 KHFD 250353Z 21005KT 10SM OVC100 07/02 A2973 RMK AO2 SLP066 T00720017
 
KOXC - Oxford/Waterbury, Connecticut, USA
Distance from station: SW 16mi, 25km
Updated: Wed, 02-24-2021 10:51pm EST
Light rain, Overcast
Light rain, Overcast
 Wind from SW
Wind: SW 7 mph , 11 km/h
Temperature: 43°F , 6°C
Wind Chill: 39°F , 4°C
Dew Point: 36°F , 2°C
Humidity: 76%
Barometer: 29.73 inHg , 1006.8 hPa
Summary: Light rain
Clouds: Overcast
Visibility: 10 miles , 16 km
Cloud details: Overcast 9000 ft
2021/02/25 03:51 KOXC 250351Z AUTO 23006KT 10SM -RA OVC090 06/02 A2973 RMK AO2 RAB49 SLP084 P0000 T00560022
KHVN - New Haven/Tweed, Connecticut, USA
Distance from station: S 23mi, 37km
Updated: Wed, 02-24-2021 10:53pm EST
Mostly cloudy
Mostly cloudy
 Wind from SSW
Wind: SSW 8 mph , 13 km/h
Temperature: 43°F , 6°C
Wind Chill: 38°F , 3°C
Dew Point: 37°F , 3°C
Humidity: 81%
Barometer: 29.73 inHg , 1006.8 hPa
Clouds: Mostly cloudy
Visibility: 10 miles , 16 km
Cloud details: Mostly cloudy 11000 ft
2021/02/25 03:53 KHVN 250353Z AUTO 21007KT 10SM BKN110 06/03 A2973 RMK AO2 SLP067 T00610033
 
KSNC - Chester, Connecticut, USA
Distance from station: SE 25mi, 40km
Updated: Wed, 02-24-2021 11:15pm EST
Few Clouds
Few Clouds
 Wind from SW
Wind: SW 10 mph , 17 km/h, Gust: 16 mph , 26 km/h
Temperature: 45°F , 7°C
Wind Chill: 40°F , 4°C
Dew Point: 41°F , 5°C
Humidity: 87%
Barometer: 29.72 inHg , 1006.4 hPa
Clouds: Few Clouds
Visibility: 10 miles , 16 km
Cloud details: Few Clouds 10000 ft
2021/02/25 04:15 KSNC 250415Z AUTO 23009G14KT 10SM FEW100 07/05 A2972 RMK AO2
KBDL - Windsor Locks, Connecticut, USA
Distance from station: NNE 25mi, 41km
Updated: Wed, 02-24-2021 10:51pm EST
Light rain, Overcast
Light rain, Overcast
 Wind from SSW
Wind: SSW 13 mph , 20 km/h
Temperature: 45°F , 7°C
Wind Chill: 39°F , 4°C
Dew Point: 34°F , 1°C
Humidity: 66%
Barometer: 29.69 inHg , 1005.4 hPa
Summary: Light rain
Clouds: Overcast
Visibility: 10 miles , 16 km
Cloud details: Overcast 9000 ft
2021/02/25 03:51 KBDL 250351Z 20011KT 10SM -RA OVC090 07/01 A2969 RMK AO2 RAB41 SLP055 P0000 T00670006
 
KBDR - Bridgeport, Connecticut, USA
Distance from station: SSW 33mi, 52km
Updated: Wed, 02-24-2021 10:52pm EST
Overcast
Overcast
 Wind from SW
Wind: SW 7 mph , 11 km/h
Temperature: 43°F , 6°C
Wind Chill: 39°F , 4°C
Dew Point: 36°F , 2°C
Humidity: 76%
Barometer: 29.74 inHg , 1007.1 hPa
Clouds: Overcast
Visibility: 10 miles , 16 km
Cloud details: Overcast 11000 ft
2021/02/25 03:52 KBDR 250352Z AUTO 23006KT 10SM OVC110 06/02 A2974 RMK AO2 SLP071 T00560022
KDXR - Danbury, Connecticut, USA
Distance from station: WSW 35mi, 56km
Updated: Wed, 02-24-2021 10:53pm EST
Overcast
Overcast
 Wind from WSW
Wind: WSW 10 mph , 17 km/h
Temperature: 46°F , 8°C
Wind Chill: 41°F , 5°C
Dew Point: 34°F , 1°C
Humidity: 62%
Barometer: 29.74 inHg , 1007.1 hPa
Clouds: Overcast
Visibility: 10 miles , 16 km
Cloud details: Mostly cloudy 7500 ft
Overcast 9000 ft
2021/02/25 03:53 KDXR 250353Z AUTO 25009KT 10SM BKN075 OVC090 08/01 A2974 RMK AO2 SLP073 T00780006
 
KIJD - Willimantic, Connecticut, USA
Distance from station: ENE 38mi, 61km
Updated: Wed, 02-24-2021 10:52pm EST
Overcast
Overcast
 Wind from SSW
Wind: SSW 6 mph , 9 km/h
Temperature: 46°F , 8°C
Wind Chill: 43°F , 6°C
Dew Point: 37°F , 3°C
Humidity: 71%
Barometer: 29.72 inHg , 1006.4 hPa
Clouds: Overcast
Visibility: 10 miles , 16 km
Cloud details: Overcast 9000 ft
2021/02/25 03:52 KIJD 250352Z AUTO 21005KT 10SM OVC090 08/03 A2972 RMK AO2 SLP063 T00780033
KBAF - Westfield, Massachusetts, USA
Distance from station: NNE 40mi, 65km
Updated: Wed, 02-24-2021 10:53pm EST
Light rain, Overcast
Light rain, Overcast
 Wind from S
Wind: S 9 mph , 15 km/h
Temperature: 41°F , 5°C
Wind Chill: 35°F , 2°C
Dew Point: 32°F , 0°C
Humidity: 70%
Barometer: 29.67 inHg , 1004.7 hPa
Summary: Light rain
Clouds: Overcast
Visibility: 10 miles , 16 km
Cloud details: Overcast 7500 ft
2021/02/25 03:53 KBAF 250353Z AUTO 17008KT 10SM -RA OVC075 05/00 A2967 RMK AO2 RAB05 SLP052 P0000 T00500000
 
KCEF - Chicopee/Westove, Massachusetts, USA
Distance from station: NNE 46mi, 73km
Updated: Wed, 02-24-2021 11:13pm EST
Overcast
Overcast
 Wind from S
Wind: S 12 mph , 19 km/h
Temperature: 41°F , 5°C
Wind Chill: 34°F , 1°C
Dew Point: 34°F , 1°C
Humidity: 76%
Barometer: 29.65 inHg , 1004.1 hPa
Clouds: Overcast
Visibility: 10 miles , 16 km
Cloud details: Overcast 7000 ft
2021/02/25 04:13 KCEF 250413Z AUTO 18010KT 10SM OVC070 05/01 A2965 RMK AO2 RAE0356DZB0356E13 PRESFR SLP048
KGON - Groton/New Londo, Connecticut, USA
Distance from station: ESE 47mi, 76km
Updated: Wed, 02-24-2021 10:56pm EST
Partly cloudy
Partly cloudy
 Wind from SW
Wind: SW 9 mph , 15 km/h
Temperature: 43°F , 6°C
Wind Chill: 38°F , 3°C
Dew Point: 37°F , 3°C
Humidity: 81%
Barometer: 29.74 inHg , 1007.1 hPa
Clouds: Partly cloudy
Visibility: 10 miles , 16 km
Cloud details: Few Clouds 10000 ft
Partly cloudy 12000 ft
2021/02/25 03:56 KGON 250356Z AUTO 23008KT 10SM FEW100 SCT120 06/03 A2974 RMK AO2 SLP069 T00610033